Time;durP1;ratioP1;P1;durP2;ratioP2;P2;SDS_P1;SDS_P2;PMS_P1;PMS_P2;Temp;Humidity;BMP_temperature;BMP_pressure;BME280_temperature;BME280_humidity;BME280_pressure;Samples;Min_cycle;Max_cycle;Signal;HPM_P1;HPM_P2
2021/03/02 00:00:32;;;;;;;6.25;5.80;;;17.90;60.30;;;;;;5102654;28;20477;-33
2021/03/02 00:02:57;;;;;;;6.55;5.50;;;18.00;60.50;;;;;;5100217;28;20032;-32
2021/03/02 00:05:23;;;;;;;6.15;5.55;;;17.90;60.40;;;;;;5107532;28;20051;-34
2021/03/02 00:07:48;;;;;;;5.93;5.43;;;17.90;60.50;;;;;;5113630;27;20089;-33
2021/03/02 00:10:14;;;;;;;5.85;5.35;;;17.90;60.60;;;;;;5108240;28;20074;-33
2021/03/02 00:12:40;;;;;;;7.13;6.43;;;17.90;60.70;;;;;;5109210;28;20100;-30
2021/03/02 00:15:07;;;;;;;6.63;5.97;;;17.90;60.80;;;;;;5109381;28;20039;-35
2021/03/02 00:17:37;;;;;;;6.65;6.05;;;17.90;60.90;;;;;;5107417;28;20016;-37
2021/03/02 00:20:08;;;;;;;5.68;5.20;;;17.90;60.70;;;;;;5105503;28;20114;-35
2021/03/02 00:23:03;;;;;;;6.25;5.68;;;17.90;60.70;;;;;;5107826;28;20065;-33
2021/03/02 00:25:30;;;;;;;6.53;5.93;;;17.80;61.00;;;;;;5101734;28;20040;-34
2021/03/02 00:27:56;;;;;;;6.18;5.68;;;17.80;61.70;;;;;;5106386;28;20050;-31
2021/03/02 00:30:22;;;;;;;5.72;5.05;;;17.80;61.20;;;;;;5094254;28;20716;-34
2021/03/02 00:32:47;;;;;;;6.13;5.63;;;17.80;60.90;;;;;;5110000;28;20512;-33
2021/03/02 00:35:14;;;;;;;5.95;5.45;;;17.80;60.90;;;;;;5111438;28;20392;-33
2021/03/02 00:37:40;;;;;;;5.90;5.45;;;17.80;61.10;;;;;;5109458;28;20055;-30
2021/03/02 00:40:06;;;;;;;5.70;5.30;;;17.80;61.10;;;;;;5108085;28;20497;-31
2021/03/02 00:42:32;;;;;;;5.63;5.13;;;17.80;61.00;;;;;;5109223;28;20393;-35
2021/03/02 00:44:57;;;;;;;5.78;5.30;;;17.80;61.00;;;;;;5108878;28;20024;-35
2021/03/02 00:47:23;;;;;;;5.93;5.40;;;17.80;61.20;;;;;;5112283;28;20016;-33
2021/03/02 00:49:49;;;;;;;5.90;5.30;;;17.80;61.40;;;;;;5108453;28;20036;-31
2021/03/02 00:52:15;;;;;;;5.43;5.03;;;17.70;61.30;;;;;;5108560;28;20028;-34
2021/03/02 00:54:41;;;;;;;7.13;5.43;;;17.70;61.10;;;;;;5109577;28;20114;-30
2021/03/02 00:57:06;;;;;;;6.13;5.53;;;17.70;61.30;;;;;;5108265;28;20020;-34
2021/03/02 00:59:32;;;;;;;5.43;4.93;;;17.70;61.20;;;;;;5107609;28;20501;-35
2021/03/02 01:01:58;;;;;;;6.32;5.82;;;17.70;61.20;;;;;;5108079;28;20089;-32
2021/03/02 01:04:23;;;;;;;5.35;4.95;;;17.70;61.30;;;;;;5108370;28;20028;-35
2021/03/02 01:06:49;;;;;;;5.30;5.00;;;17.70;61.30;;;;;;5111267;28;20418;-35
2021/03/02 01:09:14;;;;;;;5.20;4.80;;;17.70;61.20;;;;;;5112577;27;20031;-36
2021/03/02 01:11:40;;;;;;;5.47;5.07;;;17.70;61.30;;;;;;5117740;27;20016;-35
2021/03/02 01:14:05;;;;;;;4.60;4.28;;;17.70;61.30;;;;;;5113940;28;20023;-32
2021/03/02 01:16:31;;;;;;;5.57;5.20;;;17.70;61.30;;;;;;5108276;28;20032;-45
2021/03/02 01:18:56;;;;;;;5.20;4.80;;;17.70;61.40;;;;;;5110401;28;20019;-32
2021/03/02 01:21:22;;;;;;;4.85;4.45;;;17.70;61.40;;;;;;5112312;28;20038;-33
2021/03/02 01:23:48;;;;;;;5.55;5.05;;;17.60;61.40;;;;;;5113378;28;20027;-34
2021/03/02 01:26:13;;;;;;;7.00;5.30;;;17.70;61.40;;;;;;5113038;28;20020;-33
2021/03/02 01:28:39;;;;;;;5.15;4.75;;;17.70;61.30;;;;;;5108954;28;20577;-32
2021/03/02 01:31:04;;;;;;;5.28;4.88;;;17.70;61.50;;;;;;5108425;28;20443;-30
2021/03/02 01:33:30;;;;;;;5.43;4.93;;;17.60;61.60;;;;;;5111264;28;20020;-34
2021/03/02 01:35:55;;;;;;;4.82;4.43;;;17.60;61.40;;;;;;5111113;28;20209;-35
2021/03/02 01:38:21;;;;;;;5.15;4.82;;;17.60;61.50;;;;;;5115405;28;20401;-38
2021/03/02 01:40:47;;;;;;;5.10;4.70;;;17.60;61.50;;;;;;5109733;28;20045;-34
2021/03/02 01:43:14;;;;;;;5.50;5.13;;;17.60;61.50;;;;;;5111216;28;20031;-31
2021/03/02 01:45:39;;;;;;;5.30;4.90;;;17.60;61.40;;;;;;5106876;28;20028;-35
2021/03/02 01:48:05;;;;;;;4.85;4.45;;;17.60;61.40;;;;;;5111583;28;20043;-32
2021/03/02 01:50:31;;;;;;;5.55;5.15;;;17.60;61.50;;;;;;5109210;28;20414;-30
2021/03/02 01:52:56;;;;;;;5.32;4.93;;;17.60;61.50;;;;;;5112033;28;20034;-33
2021/03/02 01:55:22;;;;;;;4.60;4.30;;;17.60;61.40;;;;;;5110964;28;20438;-30
2021/03/02 01:57:48;;;;;;;4.72;4.43;;;17.60;61.60;;;;;;5110915;28;20076;-36
2021/03/02 02:00:17;;;;;;;5.40;4.90;;;17.60;61.50;;;;;;5110599;28;20045;-32
2021/03/02 02:02:52;;;;;;;4.72;4.43;;;17.60;61.50;;;;;;5105256;28;20103;-33
2021/03/02 02:05:17;;;;;;;4.78;4.47;;;17.60;61.40;;;;;;5111616;28;20090;-35
2021/03/02 02:07:44;;;;;;;4.43;4.18;;;17.60;61.50;;;;;;5109395;28;20102;-33
2021/03/02 02:10:18;;;;;;;4.78;4.38;;;17.60;61.50;;;;;;5111244;28;20542;-36
2021/03/02 02:13:03;;;;;;;;;;;17.60;61.50;;;;;;5105167;28;20069;-38
2021/03/02 02:15:30;;;;;;;;;;;17.60;61.40;;;;;;5109520;28;19987;-30
2021/03/02 02:18:07;;;;;;;5.00;4.70;;;17.60;61.60;;;;;;5110564;28;20003;-32
2021/03/02 02:20:42;;;;;;;4.57;4.28;;;17.60;61.50;;;;;;5108925;28;20118;-30
2021/03/02 02:23:13;;;;;;;4.60;4.30;;;17.60;61.30;;;;;;5112635;28;20043;-29
2021/03/02 02:26:07;;;;;;;4.53;4.13;;;17.60;61.50;;;;;;5110353;28;20030;-37
2021/03/02 02:28:33;;;;;;;4.43;4.13;;;17.60;61.80;;;;;;5049093;28;20076;-34
2021/03/02 02:30:59;;;;;;;3.90;3.70;;;17.60;61.50;;;;;;5020296;28;20095;-35
2021/03/02 02:33:32;;;;;;;4.40;4.10;;;17.60;61.30;;;;;;5034729;28;20570;-34
2021/03/02 02:35:57;;;;;;;4.53;4.22;;;17.60;61.80;;;;;;5032919;28;20036;-31
2021/03/02 02:38:23;;;;;;;3.85;3.65;;;17.60;61.60;;;;;;5033479;28;20095;-33
2021/03/02 02:40:49;;;;;;;4.57;4.10;;;17.60;61.60;;;;;;5041767;28;20301;-32
2021/03/02 02:43:18;;;;;;;4.45;4.25;;;17.60;61.70;;;;;;5033449;28;20087;-37
2021/03/02 02:45:45;;;;;;;4.07;3.88;;;17.60;61.50;;;;;;5037054;28;20038;-35
2021/03/02 02:48:11;;;;;;;4.32;4.03;;;17.60;61.30;;;;;;5032807;28;20435;-33
2021/03/02 02:50:36;;;;;;;3.83;3.55;;;17.60;61.50;;;;;;5034596;28;20048;-41
2021/03/02 02:53:02;;;;;;;4.40;4.10;;;17.60;61.40;;;;;;5015970;28;20033;-31
2021/03/02 02:55:36;;;;;;;4.07;3.83;;;17.60;61.40;;;;;;5035952;28;20526;-32
2021/03/02 02:58:02;;;;;;;4.10;3.90;;;17.50;61.30;;;;;;5036501;28;20047;-39
2021/03/02 03:00:28;;;;;;;4.25;4.05;;;17.50;61.50;;;;;;5033116;28;20574;-34
2021/03/02 03:02:53;;;;;;;4.18;3.97;;;17.50;61.60;;;;;;5044236;28;20119;-32
2021/03/02 03:05:23;;;;;;;4.35;4.05;;;17.50;61.60;;;;;;5054154;28;20047;-29
2021/03/02 03:07:56;;;;;;;4.57;4.22;;;17.50;61.60;;;;;;5110813;28;20035;-32
2021/03/02 03:10:23;;;;;;;4.30;4.00;;;17.50;61.70;;;;;;5109944;28;20043;-34
2021/03/02 03:12:49;;;;;;;4.53;4.22;;;17.50;61.70;;;;;;5108339;28;20020;-32
2021/03/02 03:15:16;;;;;;;4.22;4.03;;;17.50;61.50;;;;;;5109904;28;20028;-30
2021/03/02 03:17:45;;;;;;;3.72;3.53;;;17.50;61.70;;;;;;5108378;28;20019;-34
2021/03/02 03:20:11;;;;;;;4.07;3.88;;;17.50;61.80;;;;;;5110931;28;20047;-30
2021/03/02 03:22:37;;;;;;;3.83;3.63;;;17.50;61.60;;;;;;5108338;28;20012;-33
2021/03/02 03:25:04;;;;;;;4.35;3.97;;;17.50;61.60;;;;;;5109235;28;20023;-34
2021/03/02 03:27:30;;;;;;;3.05;2.92;;;17.50;61.60;;;;;;5107194;28;20030;-34
2021/03/02 03:29:57;;;;;;;4.00;3.80;;;17.50;61.60;;;;;;5110430;28;20035;-33
2021/03/02 03:32:22;;;;;;;3.75;3.55;;;17.50;61.70;;;;;;5110512;28;20550;-37
2021/03/02 03:34:48;;;;;;;3.90;3.65;;;17.50;61.50;;;;;;5093691;28;20131;-30
2021/03/02 03:37:13;;;;;;;3.95;3.75;;;17.50;61.70;;;;;;5107834;28;20529;-35
2021/03/02 03:39:39;;;;;;;3.40;3.20;;;17.50;61.50;;;;;;5109321;28;20089;-34
2021/03/02 03:42:05;;;;;;;4.07;3.80;;;17.50;61.40;;;;;;5093022;28;20470;-31
2021/03/02 03:44:30;;;;;;;3.72;3.53;;;17.50;61.50;;;;;;5112891;28;20405;-30
2021/03/02 03:46:56;;;;;;;3.67;3.38;;;17.50;61.50;;;;;;5108245;28;20100;-34
2021/03/02 03:49:21;;;;;;;3.40;3.20;;;17.50;61.30;;;;;;5109143;28;20039;-35
2021/03/02 03:51:48;;;;;;;4.35;4.05;;;17.50;61.30;;;;;;5109319;28;20063;-31
2021/03/02 03:54:14;;;;;;;3.70;3.50;;;17.50;61.40;;;;;;5107335;28;20035;-30
2021/03/02 03:56:41;;;;;;;3.50;3.30;;;17.50;61.50;;;;;;5110275;28;20493;-36
2021/03/02 03:59:07;;;;;;;3.75;3.50;;;17.50;61.50;;;;;;5109293;28;20151;-34
2021/03/02 04:01:32;;;;;;;3.13;3.00;;;17.50;61.40;;;;;;5105441;28;20509;-30
2021/03/02 04:03:58;;;;;;;3.42;3.22;;;17.50;61.30;;;;;;5084515;28;20019;-30
2021/03/02 04:06:23;;;;;;;3.40;3.20;;;17.50;62.10;;;;;;5107630;28;20024;-35
2021/03/02 04:08:49;;;;;;;3.38;3.17;;;17.50;61.30;;;;;;5109050;28;20375;-31
2021/03/02 04:11:15;;;;;;;3.28;3.08;;;17.50;61.40;;;;;;5109967;28;20035;-35
2021/03/02 04:13:40;;;;;;;3.60;3.40;;;17.50;61.10;;;;;;5105530;28;20034;-30
2021/03/02 04:16:06;;;;;;;3.17;2.97;;;17.50;61.10;;;;;;5109060;28;20031;-35
2021/03/02 04:18:31;;;;;;;3.50;3.30;;;17.50;61.20;;;;;;5108280;28;20103;-30
2021/03/02 04:20:57;;;;;;;3.53;3.33;;;17.50;61.20;;;;;;5085112;28;20019;-32
2021/03/02 04:23:23;;;;;;;3.55;3.25;;;17.50;60.90;;;;;;5102995;28;20508;-33
2021/03/02 04:25:48;;;;;;;3.55;3.33;;;17.50;61.30;;;;;;5102857;28;20032;-31
2021/03/02 04:28:14;;;;;;;4.00;3.80;;;17.40;61.30;;;;;;5109992;28;20417;-34
2021/03/02 04:30:39;;;;;;;4.45;4.15;;;17.40;61.40;;;;;;5099094;28;20398;-36
2021/03/02 04:33:05;;;;;;;3.85;3.65;;;17.40;61.50;;;;;;5092197;28;20157;-35
2021/03/02 04:35:31;;;;;;;3.58;3.38;;;17.40;61.60;;;;;;5093610;28;20020;-35
2021/03/02 04:37:56;;;;;;;4.05;3.85;;;17.40;61.60;;;;;;5108169;28;20020;-32
2021/03/02 04:40:22;;;;;;;3.95;3.67;;;17.40;61.60;;;;;;5110062;28;20447;-30
2021/03/02 04:42:48;;;;;;;4.13;3.92;;;17.40;61.70;;;;;;5106961;28;20015;-35
2021/03/02 04:45:14;;;;;;;3.50;3.30;;;17.40;61.40;;;;;;5115663;27;20106;-32
2021/03/02 04:47:41;;;;;;;3.40;3.20;;;17.40;61.30;;;;;;5115527;28;20023;-31
2021/03/02 04:50:07;;;;;;;3.60;3.22;;;17.40;61.40;;;;;;5113325;28;20043;-34
2021/03/02 04:52:32;;;;;;;3.38;3.17;;;17.40;61.60;;;;;;5113059;28;20042;-30
2021/03/02 04:54:58;;;;;;;3.42;3.22;;;17.40;61.60;;;;;;5112673;28;20103;-35
2021/03/02 04:57:24;;;;;;;3.30;3.10;;;17.40;61.40;;;;;;5110554;28;20024;-32
2021/03/02 04:59:49;;;;;;;3.58;3.38;;;17.40;61.50;;;;;;5110546;28;20501;-32
2021/03/02 05:02:15;;;;;;;3.80;3.60;;;17.40;61.40;;;;;;5115334;28;20401;-32
2021/03/02 05:04:40;;;;;;;3.50;3.30;;;17.40;61.60;;;;;;5111741;28;20102;-35
2021/03/02 05:07:06;;;;;;;3.42;3.20;;;17.30;61.50;;;;;;5112793;28;20027;-31
2021/03/02 05:09:32;;;;;;;3.67;3.47;;;17.30;61.50;;;;;;5111502;28;20118;-31
2021/03/02 05:11:57;;;;;;;4.00;3.78;;;17.30;61.50;;;;;;5113305;28;20440;-35
2021/03/02 05:14:23;;;;;;;3.50;3.30;;;17.40;61.50;;;;;;5114288;28;20039;-29
2021/03/02 05:16:48;;;;;;;3.28;3.08;;;17.40;61.20;;;;;;5111781;28;20028;-29
2021/03/02 05:19:14;;;;;;;3.40;3.17;;;17.30;61.50;;;;;;5112268;28;20023;-34
2021/03/02 05:21:40;;;;;;;5.63;3.15;;;17.30;61.40;;;;;;5112313;28;20038;-33
2021/03/02 05:24:06;;;;;;;3.35;3.15;;;17.30;61.50;;;;;;5095865;28;20016;-32
2021/03/02 05:26:32;;;;;;;3.17;2.97;;;17.40;61.50;;;;;;5115789;28;20027;-32
2021/03/02 05:28:57;;;;;;;3.45;3.30;;;17.40;61.50;;;;;;5112422;28;20054;-34
2021/03/02 05:31:23;;;;;;;3.65;3.45;;;17.30;61.50;;;;;;5112937;28;20031;-30
2021/03/02 05:33:49;;;;;;;3.53;3.33;;;17.40;61.50;;;;;;5112734;28;20485;-31
2021/03/02 05:36:15;;;;;;;3.40;3.20;;;17.40;61.50;;;;;;5112114;28;20023;-32
2021/03/02 05:38:40;;;;;;;3.28;3.08;;;17.30;61.60;;;;;;5114439;28;20422;-36
2021/03/02 05:41:08;;;;;;;3.53;3.33;;;17.30;61.50;;;;;;5112221;28;20065;-35
2021/03/02 05:43:35;;;;;;;3.58;3.38;;;17.30;61.50;;;;;;5111259;28;20035;-36
2021/03/02 05:46:02;;;;;;;3.53;3.33;;;17.30;61.70;;;;;;5110220;28;20081;-32
2021/03/02 05:48:29;;;;;;;3.25;3.05;;;17.30;61.70;;;;;;5109143;28;20032;-35
2021/03/02 05:50:54;;;;;;;3.30;3.10;;;17.30;61.50;;;;;;5108359;28;20446;-29
2021/03/02 05:53:20;;;;;;;3.42;3.22;;;17.40;61.40;;;;;;5113643;28;20099;-34
2021/03/02 05:55:46;;;;;;;3.25;2.95;;;17.30;61.50;;;;;;5109809;28;20410;-34
2021/03/02 05:58:13;;;;;;;3.60;3.40;;;17.30;61.60;;;;;;5110437;28;20016;-34
2021/03/02 06:00:39;;;;;;;3.67;3.47;;;17.30;61.80;;;;;;5109964;28;20152;-32
2021/03/02 06:03:04;;;;;;;3.40;3.20;;;17.30;61.70;;;;;;5111256;28;20032;-32
2021/03/02 06:05:30;;;;;;;3.90;3.60;;;17.30;61.60;;;;;;5114586;28;20047;-35
2021/03/02 06:07:56;;;;;;;3.67;3.47;;;17.30;61.50;;;;;;5111382;28;20027;-31
2021/03/02 06:10:28;;;;;;;3.60;3.40;;;17.30;61.50;;;;;;5111834;28;20040;-31
2021/03/02 06:12:55;;;;;;;4.18;3.97;;;17.30;61.70;;;;;;5110390;28;20119;-31
2021/03/02 06:15:22;;;;;;;3.60;3.40;;;17.20;61.70;;;;;;5110669;28;20039;-34
2021/03/02 06:17:47;;;;;;;3.47;3.28;;;17.30;61.70;;;;;;5112008;28;20030;-29
2021/03/02 06:20:20;;;;;;;3.60;3.33;;;17.20;61.70;;;;;;5113582;28;20028;-34
2021/03/02 06:22:45;;;;;;;3.83;3.60;;;17.20;61.70;;;;;;5110335;28;20026;-34
2021/03/02 06:25:30;;;;;;;2.92;2.75;;;17.20;61.50;;;;;;5110118;27;20024;-32
2021/03/02 06:27:55;;;;;;;3.45;3.25;;;17.20;61.60;;;;;;5110776;28;20043;-31
2021/03/02 06:30:21;;;;;;;3.80;3.60;;;17.20;61.70;;;;;;5111273;28;20562;-33
2021/03/02 06:32:54;;;;;;;3.50;3.30;;;17.20;61.70;;;;;;5111886;28;20027;-30
2021/03/02 06:35:32;;;;;;;3.03;2.83;;;17.20;61.80;;;;;;5112292;28;20035;-30
2021/03/02 06:37:58;;;;;;;3.10;2.85;;;17.20;61.70;;;;;;5109929;28;20623;-27
2021/03/02 06:40:39;;;;;;;3.40;3.20;;;17.20;61.70;;;;;;5109957;28;20033;-32
2021/03/02 06:43:05;;;;;;;3.20;3.00;;;17.20;61.70;;;;;;5110117;28;20028;-34
2021/03/02 06:45:31;;;;;;;3.60;3.40;;;17.20;61.50;;;;;;4755757;28;9999936;-39
2021/03/02 06:48:04;;;;;;;3.90;3.60;;;17.20;61.60;;;;;;5106027;28;20429;-34
2021/03/02 06:50:31;;;;;;;4.37;4.07;;;17.10;61.80;;;;;;5109835;28;20061;-36
2021/03/02 06:52:56;;;;;;;3.92;3.63;;;17.10;61.80;;;;;;5106025;28;20031;-37
2021/03/02 06:55:23;;;;;;;4.25;3.95;;;17.10;62.00;;;;;;5107258;28;20031;-34
2021/03/02 06:57:49;;;;;;;4.38;4.07;;;17.10;61.80;;;;;;5105894;28;20031;-31
2021/03/02 07:00:16;;;;;;;4.90;4.50;;;17.10;61.80;;;;;;5105930;28;20055;-32
2021/03/02 07:02:42;;;;;;;4.25;3.95;;;17.10;61.80;;;;;;5108246;28;20031;-34
2021/03/02 07:05:15;;;;;;;4.70;4.30;;;17.10;61.70;;;;;;5106659;28;20126;-32
2021/03/02 07:07:42;;;;;;;4.47;4.18;;;17.10;61.60;;;;;;5105752;28;20023;-42
2021/03/02 07:10:09;;;;;;;4.05;3.85;;;17.10;61.50;;;;;;5106114;27;20064;-36
2021/03/02 07:12:37;;;;;;;4.25;3.95;;;17.10;61.60;;;;;;5106938;28;20381;-31
2021/03/02 07:15:10;;;;;;;3.72;3.47;;;17.10;61.50;;;;;;5105848;28;20035;-33
2021/03/02 07:17:44;;;;;;;3.90;3.70;;;17.10;61.50;;;;;;5104182;28;20023;-37
2021/03/02 07:20:10;;;;;;;;;;;17.10;61.40;;;;;;5108380;28;20035;-35
2021/03/02 07:22:37;;;;;;;3.72;3.53;;;17.10;61.40;;;;;;5106467;28;19924;-33
2021/03/02 07:25:05;;;;;;;4.30;4.00;;;17.10;61.30;;;;;;5104557;28;20039;-36
2021/03/02 07:27:31;;;;;;;3.75;3.55;;;17.20;61.30;;;;;;5104843;28;20028;-32
2021/03/02 07:29:59;;;;;;;4.28;3.97;;;17.20;61.20;;;;;;5106414;28;20039;-31
2021/03/02 07:32:27;;;;;;;4.15;3.85;;;17.20;61.10;;;;;;5094051;27;20032;-31
2021/03/02 07:34:53;;;;;;;4.70;4.30;;;17.20;61.10;;;;;;5083379;28;20016;-34
2021/03/02 07:37:20;;;;;;;5.10;4.70;;;17.20;61.10;;;;;;5099755;28;20112;-29
2021/03/02 07:40:01;;;;;;;4.57;4.30;;;17.10;61.10;;;;;;5087911;28;20058;-36
2021/03/02 07:42:27;;;;;;;4.93;4.53;;;17.10;61.00;;;;;;5107274;28;20031;-32
2021/03/02 07:45:12;;;;;;;4.63;4.38;;;17.20;60.90;;;;;;5107577;28;20481;-31
2021/03/02 07:47:47;;;;;;;5.05;4.72;;;17.10;60.80;;;;;;5106600;28;20031;-37
2021/03/02 07:50:22;;;;;;;4.65;4.35;;;17.10;60.60;;;;;;5105893;28;20619;-35
2021/03/02 07:52:49;;;;;;;4.60;4.25;;;17.10;60.70;;;;;;5107086;28;20038;-31
2021/03/02 07:55:22;;;;;;;6.82;5.10;;;17.10;60.70;;;;;;5107731;28;20028;-35
2021/03/02 07:57:48;;;;;;;4.40;4.10;;;17.10;60.80;;;;;;5107491;27;20518;-31
2021/03/02 08:00:13;;;;;;;4.68;4.35;;;17.10;61.50;;;;;;5107359;28;20400;-34
2021/03/02 08:02:39;;;;;;;4.93;3.70;;;17.10;60.90;;;;;;5108412;28;20027;-34
2021/03/02 08:05:28;;;;;;;4.05;3.75;;;17.10;60.80;;;;;;5108634;28;20566;-33
2021/03/02 08:08:25;;;;;;;3.92;3.72;;;17.10;60.70;;;;;;5101494;28;20043;-31
2021/03/02 08:10:50;;;;;;;4.57;4.20;;;17.10;60.60;;;;;;5107444;28;20044;-31
2021/03/02 08:13:38;;;;;;;4.35;4.00;;;17.10;60.70;;;;;;5106958;28;20028;-31
2021/03/02 08:16:13;;;;;;;4.60;4.30;;;17.10;60.70;;;;;;5107050;28;20042;-30
2021/03/02 08:18:47;;;;;;;4.43;4.03;;;17.20;60.70;;;;;;5106615;28;20495;-32
2021/03/02 08:21:14;;;;;;;;;;;17.20;60.70;;;;;;5107584;28;20437;-32
2021/03/02 08:23:56;;;;;;;3.90;3.70;;;17.20;60.70;;;;;;5096804;28;19961;-33
2021/03/02 08:26:31;;;;;;;3.88;3.60;;;17.20;60.70;;;;;;5109177;28;20043;-32
2021/03/02 08:29:05;;;;;;;4.43;4.13;;;17.20;60.50;;;;;;5104672;28;20043;-35
2021/03/02 08:31:31;;;;;;;3.90;3.70;;;17.30;60.50;;;;;;5099478;28;20067;-42
2021/03/02 08:33:58;;;;;;;3.70;3.40;;;17.20;61.20;;;;;;5101726;28;20020;-39
2021/03/02 08:36:24;;;;;;;4.22;3.92;;;17.20;60.50;;;;;;5107764;27;20039;-41
2021/03/02 08:38:49;;;;;;;3.97;3.67;;;17.20;60.50;;;;;;5107477;28;20155;-36
2021/03/02 08:41:33;;;;;;;4.03;3.80;;;17.20;60.50;;;;;;5094123;28;20518;-34
2021/03/02 08:43:59;;;;;;;3.72;3.42;;;17.20;60.50;;;;;;5107711;28;20024;-30
2021/03/02 08:46:26;;;;;;;3.92;3.72;;;17.20;60.40;;;;;;5104982;28;20473;-40
2021/03/02 08:48:53;;;;;;;3.78;3.55;;;17.20;60.50;;;;;;5106341;28;20124;-33
2021/03/02 08:51:20;;;;;;;5.30;5.00;;;17.20;60.40;;;;;;5106798;28;20051;-37
2021/03/02 08:53:49;;;;;;;5.38;4.97;;;17.30;60.10;;;;;;5107758;28;20427;-35
2021/03/02 08:56:20;;;;;;;5.07;4.72;;;17.30;60.00;;;;;;4753515;28;9999723;-33
2021/03/02 08:58:50;;;;;;;6.05;5.55;;;17.40;60.10;;;;;;5102382;28;20556;-37
2021/03/02 09:01:36;;;;;;;5.63;5.18;;;17.40;60.00;;;;;;5101619;28;20023;-32
2021/03/02 09:04:18;;;;;;;6.20;5.70;;;17.40;59.90;;;;;;5097838;28;20070;-33
2021/03/02 09:06:44;;;;;;;5.95;5.55;;;17.40;59.80;;;;;;5092204;27;20139;-34
2021/03/02 09:09:14;;;;;;;7.43;5.63;;;17.50;59.90;;;;;;5090201;28;20052;-31
2021/03/02 09:11:40;;;;;;;6.72;6.25;;;17.50;59.80;;;;;;5087681;28;20105;-29
2021/03/02 09:14:45;;;;;;;6.72;6.13;;;17.60;59.80;;;;;;5094659;28;20044;-33
2021/03/02 09:17:10;;;;;;;6.40;5.90;;;17.60;59.50;;;;;;5028634;28;20095;-36
2021/03/02 09:19:40;;;;;;;6.20;5.75;;;17.70;59.40;;;;;;5038834;28;20053;-34
2021/03/02 09:22:10;;;;;;;6.18;5.68;;;17.70;59.40;;;;;;5039244;28;20040;-36
2021/03/02 09:24:55;;;;;;;6.88;6.28;;;17.70;59.20;;;;;;5041031;28;20037;-33
2021/03/02 09:27:21;;;;;;;6.07;5.43;;;17.80;59.10;;;;;;5043096;28;20048;-32
2021/03/02 09:29:50;;;;;;;6.00;5.60;;;17.90;59.00;;;;;;5043392;28;20216;-32
2021/03/02 09:32:23;;;;;;;6.30;5.80;;;17.90;59.00;;;;;;5044804;28;20044;-36
2021/03/02 09:34:52;;;;;;;6.43;5.82;;;18.00;59.00;;;;;;5043493;28;20147;-35
2021/03/02 09:37:19;;;;;;;6.30;5.80;;;18.10;58.80;;;;;;5036847;28;20062;-32
2021/03/02 09:39:55;;;;;;;5.55;5.15;;;18.00;58.60;;;;;;5042688;28;20123;-37
2021/03/02 09:42:22;;;;;;;6.10;5.70;;;18.10;58.70;;;;;;5042923;28;20044;-34
2021/03/02 09:44:54;;;;;;;7.15;6.57;;;18.10;58.70;;;;;;5043651;28;20076;-36
2021/03/02 09:47:29;;;;;;;7.68;7.03;;;18.10;58.70;;;;;;5052670;28;20919;-38
2021/03/02 09:50:12;;;;;;;7.88;7.18;;;18.00;58.80;;;;;;5100936;28;20052;-34
2021/03/02 09:52:38;;;;;;;8.25;7.00;;;18.10;58.80;;;;;;5096765;27;20414;-36
2021/03/02 09:55:19;;;;;;;6.97;6.43;;;18.10;58.80;;;;;;5106358;27;20092;-36
2021/03/02 09:57:57;;;;;;;7.95;7.35;;;18.20;58.60;;;;;;5104809;27;20097;-33
2021/03/02 10:00:27;;;;;;;8.13;7.43;;;18.20;58.60;;;;;;5106607;28;20032;-30
2021/03/02 10:03:04;;;;;;;7.22;6.63;;;18.30;58.40;;;;;;5097928;28;20046;-33
2021/03/02 10:05:35;;;;;;;6.47;5.88;;;18.30;58.30;;;;;;5108675;28;20071;-33
2021/03/02 10:08:18;;;;;;;6.40;5.90;;;18.40;58.40;;;;;;5105597;27;20059;-35
2021/03/02 10:10:43;;;;;;;7.00;6.50;;;18.40;58.40;;;;;;5102930;28;20048;-42
2021/03/02 10:13:09;;;;;;;6.50;5.93;;;18.40;58.50;;;;;;5100722;28;20489;-36
2021/03/02 10:15:35;;;;;;;6.40;5.90;;;18.40;58.40;;;;;;5104939;27;20050;-38
2021/03/02 10:18:01;;;;;;;6.53;6.03;;;18.50;58.40;;;;;;5100424;28;20048;-38
2021/03/02 10:20:27;;;;;;;6.32;5.80;;;18.60;58.00;;;;;;5106782;27;20517;-32
2021/03/02 10:23:03;;;;;;;5.80;5.40;;;18.60;57.90;;;;;;5105542;28;20039;-37
2021/03/02 10:25:39;;;;;;;6.95;6.35;;;18.60;58.00;;;;;;5103416;27;20073;-38
2021/03/02 10:28:05;;;;;;;6.30;5.80;;;18.60;58.60;;;;;;5106816;27;20046;-39
2021/03/02 10:30:31;;;;;;;6.95;6.40;;;18.60;58.00;;;;;;5099827;28;20056;-35
2021/03/02 10:32:56;;;;;;;6.57;6.07;;;18.60;57.90;;;;;;5099316;27;20040;-35
2021/03/02 10:35:22;;;;;;;5.80;5.40;;;18.60;58.00;;;;;;5101607;27;20071;-40
2021/03/02 10:37:47;;;;;;;5.72;5.28;;;18.60;58.00;;;;;;5097602;28;20097;-33
2021/03/02 10:40:14;;;;;;;5.68;5.28;;;18.60;58.20;;;;;;5103693;27;20517;-38
2021/03/02 10:42:39;;;;;;;5.85;5.45;;;18.60;58.20;;;;;;5106906;27;20103;-37
2021/03/02 10:45:05;;;;;;;5.85;5.35;;;18.60;58.10;;;;;;5090484;28;20506;-37
2021/03/02 10:47:31;;;;;;;6.55;5.35;;;18.70;57.90;;;;;;5095265;28;20051;-34
2021/03/02 10:49:57;;;;;;;5.90;5.43;;;18.60;58.00;;;;;;5102459;28;20081;-36
2021/03/02 10:52:23;;;;;;;6.00;5.40;;;18.60;58.00;;;;;;5100545;28;20047;-36
2021/03/02 10:54:49;;;;;;;5.28;4.88;;;18.70;58.00;;;;;;5095098;28;20517;-38
2021/03/02 10:57:15;;;;;;;5.70;5.30;;;18.70;57.80;;;;;;5091540;28;20070;-35
2021/03/02 10:59:40;;;;;;;5.53;5.13;;;18.70;58.30;;;;;;5093598;28;20104;-36
2021/03/02 11:02:06;;;;;;;5.90;5.32;;;18.70;57.60;;;;;;5102013;28;20036;-38
2021/03/02 11:04:32;;;;;;;4.97;4.68;;;18.70;57.60;;;;;;5098799;27;20043;-36
2021/03/02 11:06:57;;;;;;;4.93;4.57;;;18.70;57.80;;;;;;5094194;27;20050;-36
2021/03/02 11:09:25;;;;;;;5.00;4.60;;;18.80;57.70;;;;;;5090967;28;20032;-35
2021/03/02 11:11:53;;;;;;;4.53;4.22;;;18.70;57.70;;;;;;5107030;28;20043;-37
2021/03/02 11:14:19;;;;;;;4.65;4.25;;;18.80;57.60;;;;;;5095028;28;20047;-39
2021/03/02 11:16:44;;;;;;;4.90;4.60;;;18.80;57.60;;;;;;5095180;28;20526;-38
2021/03/02 11:19:10;;;;;;;4.47;4.22;;;18.80;57.50;;;;;;5095045;27;20048;-35
2021/03/02 11:21:36;;;;;;;4.40;4.20;;;18.90;57.50;;;;;;5094032;28;20044;-37
2021/03/02 11:24:01;;;;;;;4.70;4.05;;;18.90;57.40;;;;;;5091966;28;20039;-32
2021/03/02 11:26:27;;;;;;;4.35;4.07;;;18.90;57.50;;;;;;5105463;28;20044;-34
2021/03/02 11:28:52;;;;;;;4.85;4.55;;;19.00;57.40;;;;;;5095875;28;20058;-34
2021/03/02 11:31:18;;;;;;;4.55;4.20;;;19.00;57.40;;;;;;5095330;28;20060;-39
2021/03/02 11:33:44;;;;;;;4.57;4.28;;;18.90;57.40;;;;;;5093756;28;20544;-36
2021/03/02 11:36:09;;;;;;;4.18;3.97;;;19.00;57.30;;;;;;5107305;28;20111;-38
2021/03/02 11:38:35;;;;;;;4.43;4.07;;;19.00;57.40;;;;;;5110523;27;20046;-38
2021/03/02 11:41:01;;;;;;;5.03;3.83;;;19.00;57.60;;;;;;5102071;28;20056;-35
2021/03/02 11:43:27;;;;;;;5.00;3.90;;;19.00;57.50;;;;;;5110209;27;20046;-37
2021/03/02 11:45:53;;;;;;;4.55;4.32;;;19.00;57.40;;;;;;5104266;28;20047;-37
2021/03/02 11:48:18;;;;;;;4.03;3.83;;;19.00;57.20;;;;;;5090418;28;20096;-34
2021/03/02 11:50:44;;;;;;;4.68;4.22;;;19.00;57.30;;;;;;5104971;28;20044;-40
2021/03/02 11:53:09;;;;;;;4.70;4.35;;;19.00;57.60;;;;;;5094419;28;20090;-38
2021/03/02 11:55:35;;;;;;;4.35;4.13;;;18.90;57.50;;;;;;5093405;28;20044;-35
2021/03/02 11:58:00;;;;;;;4.20;3.90;;;18.90;57.50;;;;;;5093748;28;20462;-37
2021/03/02 12:00:26;;;;;;;4.10;3.80;;;18.90;57.50;;;;;;5106165;28;20055;-33
2021/03/02 12:02:52;;;;;;;5.15;4.75;;;19.00;57.60;;;;;;5104932;27;20123;-38
2021/03/02 12:05:19;;;;;;;4.10;3.70;;;18.90;57.60;;;;;;5105404;28;20101;-32
2021/03/02 12:07:45;;;;;;;3.70;3.50;;;18.90;57.50;;;;;;5102208;28;20043;-37
2021/03/02 12:10:12;;;;;;;4.43;4.03;;;19.00;57.50;;;;;;5102471;28;20052;-37
2021/03/02 12:12:38;;;;;;;4.63;3.92;;;19.00;57.50;;;;;;5094518;28;20047;-31
2021/03/02 12:15:04;;;;;;;4.13;3.72;;;19.00;57.50;;;;;;5092930;28;20052;-32
2021/03/02 12:17:30;;;;;;;3.55;3.35;;;19.00;57.40;;;;;;5104983;28;20126;-34
2021/03/02 12:19:55;;;;;;;3.92;3.65;;;19.10;57.50;;;;;;5095375;28;20135;-36
2021/03/02 12:22:21;;;;;;;3.80;3.60;;;19.10;57.30;;;;;;5095088;28;20597;-30
2021/03/02 12:24:46;;;;;;;3.55;3.35;;;19.10;57.30;;;;;;4747564;28;10000037;-34
2021/03/02 12:27:12;;;;;;;4.30;4.00;;;19.10;57.40;;;;;;5091412;28;20043;-35
2021/03/02 12:29:38;;;;;;;4.90;4.40;;;19.10;57.40;;;;;;5093549;28;20058;-34
2021/03/02 12:32:03;;;;;;;4.55;4.10;;;19.00;57.40;;;;;;5101378;28;20089;-37
2021/03/02 12:34:29;;;;;;;4.50;4.20;;;19.00;57.90;;;;;;5096063;28;20058;-36
2021/03/02 12:36:56;;;;;;;3.38;3.17;;;19.10;57.90;;;;;;5097482;28;20048;-32
2021/03/02 12:39:21;;;;;;;4.13;3.80;;;19.20;57.70;;;;;;5101280;28;20048;-39
2021/03/02 12:41:47;;;;;;;4.15;3.75;;;19.20;58.00;;;;;;5091718;28;20064;-37
2021/03/02 12:44:12;;;;;;;4.78;4.32;;;19.30;57.80;;;;;;5101342;28;20035;-38
2021/03/02 12:46:38;;;;;;;6.47;4.70;;;19.40;58.00;;;;;;5096527;28;20150;-38
2021/03/02 12:49:03;;;;;;;4.25;3.92;;;19.40;58.40;;;;;;5102139;28;20042;-38
2021/03/02 12:51:29;;;;;;;4.50;4.13;;;19.40;58.30;;;;;;5091955;28;20051;-34